Terminal Aerodrome Forecast
Issued by NWS

Current Version | Previous Version | Text Only | Print | Product List | Glossary On
Versions: 1 2 3 4 5 6 7 8 9 10 11 12 13 14 15 16 17 18 19 20 21 22
201
FTUS43 KBIS 051735
TAFMOT
TAF
KMOT 051735Z 0518/0618 30008KT P6SM OVC020
     FM052100 31014G23KT 4SM -SN BLSN OVC015
     FM060100 31024G35KT 1 1/2SM -SN BLSN OVC008
     FM061200 30025G35KT 1 1/2SM BLSN OVC008
     FM061700 29021G31KT 2SM BLSN OVC010=

USA.gov is the U.S. government's official web portal to all federal, state and local government web resources and services.